sensor_id;sensor_type;location;lat;lon;timestamp;P1;durP1;ratioP1;P2;durP2;ratioP2
46116;SDS011;32591;48.102;11.772;2022-10-16T00:01:56;1.65;;;1.20;;
46116;SDS011;32591;48.102;11.772;2022-10-16T00:04:24;1.85;;;1.27;;
46116;SDS011;32591;48.102;11.772;2022-10-16T00:06:51;1.92;;;1.10;;
46116;SDS011;32591;48.102;11.772;2022-10-16T00:09:18;2.50;;;1.15;;
46116;SDS011;32591;48.102;11.772;2022-10-16T00:11:45;2.80;;;1.20;;
46116;SDS011;32591;48.102;11.772;2022-10-16T00:14:13;3.15;;;1.25;;
46116;SDS011;32591;48.102;11.772;2022-10-16T00:16:41;2.22;;;1.00;;
46116;SDS011;32591;48.102;11.772;2022-10-16T00:19:08;2.35;;;1.10;;
46116;SDS011;32591;48.102;11.772;2022-10-16T00:21:38;4.68;;;1.30;;
46116;SDS011;32591;48.102;11.772;2022-10-16T00:24:06;1.83;;;1.42;;
46116;SDS011;32591;48.102;11.772;2022-10-16T00:26:35;4.45;;;1.15;;
46116;SDS011;32591;48.102;11.772;2022-10-16T00:29:03;2.15;;;0.98;;
46116;SDS011;32591;48.102;11.772;2022-10-16T00:31:31;2.10;;;1.00;;
46116;SDS011;32591;48.102;11.772;2022-10-16T00:33:59;1.10;;;0.85;;
46116;SDS011;32591;48.102;11.772;2022-10-16T00:36:26;2.90;;;0.98;;
46116;SDS011;32591;48.102;11.772;2022-10-16T00:38:55;2.75;;;1.20;;
46116;SDS011;32591;48.102;11.772;2022-10-16T00:41:25;2.22;;;1.35;;
46116;SDS011;32591;48.102;11.772;2022-10-16T00:43:54;1.98;;;1.10;;
46116;SDS011;32591;48.102;11.772;2022-10-16T00:46:24;3.38;;;1.10;;
46116;SDS011;32591;48.102;11.772;2022-10-16T00:48:55;2.17;;;0.88;;
46116;SDS011;32591;48.102;11.772;2022-10-16T00:51:28;2.78;;;1.10;;
46116;SDS011;32591;48.102;11.772;2022-10-16T00:54:00;2.17;;;1.00;;
46116;SDS011;32591;48.102;11.772;2022-10-16T00:56:31;1.48;;;1.10;;
46116;SDS011;32591;48.102;11.772;2022-10-16T00:58:59;3.70;;;1.10;;
46116;SDS011;32591;48.102;11.772;2022-10-16T01:01:30;2.97;;;1.10;;
46116;SDS011;32591;48.102;11.772;2022-10-16T01:03:57;2.42;;;0.93;;
46116;SDS011;32591;48.102;11.772;2022-10-16T01:06:24;2.95;;;1.20;;
46116;SDS011;32591;48.102;11.772;2022-10-16T01:09:09;2.60;;;1.70;;
46116;SDS011;32591;48.102;11.772;2022-10-16T01:11:44;2.83;;;1.00;;
46116;SDS011;32591;48.102;11.772;2022-10-16T01:14:22;3.40;;;1.17;;
46116;SDS011;32591;48.102;11.772;2022-10-16T01:16:58;1.48;;;0.90;;
46116;SDS011;32591;48.102;11.772;2022-10-16T01:19:36;1.10;;;0.80;;
46116;SDS011;32591;48.102;11.772;2022-10-16T01:24:48;2.42;;;1.40;;
46116;SDS011;32591;48.102;11.772;2022-10-16T01:27:18;2.40;;;1.42;;
46116;SDS011;32591;48.102;11.772;2022-10-16T01:29:49;2.80;;;1.38;;
46116;SDS011;32591;48.102;11.772;2022-10-16T01:32:22;2.25;;;1.17;;
46116;SDS011;32591;48.102;11.772;2022-10-16T01:34:57;1.85;;;1.10;;
46116;SDS011;32591;48.102;11.772;2022-10-16T01:37:31;4.78;;;1.50;;
46116;SDS011;32591;48.102;11.772;2022-10-16T01:40:05;3.08;;;1.00;;
46116;SDS011;32591;48.102;11.772;2022-10-16T01:42:39;6.40;;;1.50;;
46116;SDS011;32591;48.102;11.772;2022-10-16T01:45:09;1.77;;;0.90;;
46116;SDS011;32591;48.102;11.772;2022-10-16T01:47:39;1.85;;;1.08;;
46116;SDS011;32591;48.102;11.772;2022-10-16T01:50:09;0.80;;;0.80;;
46116;SDS011;32591;48.102;11.772;2022-10-16T01:52:39;2.72;;;1.55;;
46116;SDS011;32591;48.102;11.772;2022-10-16T01:55:10;1.60;;;1.17;;
46116;SDS011;32591;48.102;11.772;2022-10-16T01:57:44;2.30;;;1.10;;
46116;SDS011;32591;48.102;11.772;2022-10-16T02:00:16;1.65;;;1.02;;
46116;SDS011;32591;48.102;11.772;2022-10-16T02:02:46;1.60;;;0.98;;
46116;SDS011;32591;48.102;11.772;2022-10-16T02:05:19;2.33;;;1.15;;
46116;SDS011;32591;48.102;11.772;2022-10-16T02:07:51;1.77;;;1.10;;
46116;SDS011;32591;48.102;11.772;2022-10-16T02:10:18;1.83;;;1.05;;
46116;SDS011;32591;48.102;11.772;2022-10-16T02:12:48;3.00;;;1.08;;
46116;SDS011;32591;48.102;11.772;2022-10-16T02:15:21;1.65;;;1.15;;
46116;SDS011;32591;48.102;11.772;2022-10-16T02:17:48;1.55;;;0.90;;
46116;SDS011;32591;48.102;11.772;2022-10-16T02:20:15;1.45;;;1.00;;
46116;SDS011;32591;48.102;11.772;2022-10-16T02:22:43;3.30;;;1.98;;
46116;SDS011;32591;48.102;11.772;2022-10-16T02:25:15;6.15;;;1.48;;
46116;SDS011;32591;48.102;11.772;2022-10-16T02:27:50;1.52;;;1.02;;
46116;SDS011;32591;48.102;11.772;2022-10-16T02:30:24;4.35;;;1.20;;
46116;SDS011;32591;48.102;11.772;2022-10-16T02:32:57;1.42;;;1.00;;
46116;SDS011;32591;48.102;11.772;2022-10-16T02:35:27;1.55;;;1.08;;
46116;SDS011;32591;48.102;11.772;2022-10-16T02:37:55;1.35;;;0.95;;
46116;SDS011;32591;48.102;11.772;2022-10-16T02:40:23;2.00;;;1.48;;
46116;SDS011;32591;48.102;11.772;2022-10-16T02:42:53;1.38;;;0.80;;
46116;SDS011;32591;48.102;11.772;2022-10-16T02:45:21;1.67;;;0.90;;
46116;SDS011;32591;48.102;11.772;2022-10-16T02:47:49;2.45;;;1.20;;
46116;SDS011;32591;48.102;11.772;2022-10-16T02:50:16;3.53;;;1.30;;
46116;SDS011;32591;48.102;11.772;2022-10-16T02:52:43;1.33;;;1.17;;
46116;SDS011;32591;48.102;11.772;2022-10-16T02:55:10;0.82;;;0.80;;
46116;SDS011;32591;48.102;11.772;2022-10-16T02:57:37;2.47;;;1.00;;
46116;SDS011;32591;48.102;11.772;2022-10-16T03:00:07;2.08;;;1.08;;
46116;SDS011;32591;48.102;11.772;2022-10-16T03:02:36;3.25;;;1.25;;
46116;SDS011;32591;48.102;11.772;2022-10-16T03:05:04;2.15;;;1.10;;
46116;SDS011;32591;48.102;11.772;2022-10-16T03:07:32;1.33;;;0.85;;
46116;SDS011;32591;48.102;11.772;2022-10-16T03:09:58;1.73;;;1.17;;
46116;SDS011;32591;48.102;11.772;2022-10-16T03:12:25;1.77;;;0.82;;
46116;SDS011;32591;48.102;11.772;2022-10-16T03:14:53;1.75;;;1.15;;
46116;SDS011;32591;48.102;11.772;2022-10-16T03:17:21;1.33;;;1.00;;
46116;SDS011;32591;48.102;11.772;2022-10-16T03:19:48;2.15;;;0.90;;
46116;SDS011;32591;48.102;11.772;2022-10-16T03:22:16;2.15;;;0.98;;
46116;SDS011;32591;48.102;11.772;2022-10-16T03:24:43;3.08;;;1.00;;
46116;SDS011;32591;48.102;11.772;2022-10-16T03:27:10;2.22;;;1.02;;
46116;SDS011;32591;48.102;11.772;2022-10-16T03:29:37;2.00;;;0.90;;
46116;SDS011;32591;48.102;11.772;2022-10-16T03:32:04;1.50;;;1.00;;
46116;SDS011;32591;48.102;11.772;2022-10-16T03:34:32;4.32;;;1.42;;
46116;SDS011;32591;48.102;11.772;2022-10-16T03:36:59;1.85;;;0.88;;
46116;SDS011;32591;48.102;11.772;2022-10-16T03:39:26;1.75;;;1.15;;
46116;SDS011;32591;48.102;11.772;2022-10-16T03:41:53;4.20;;;1.27;;
46116;SDS011;32591;48.102;11.772;2022-10-16T03:44:20;2.67;;;0.95;;
46116;SDS011;32591;48.102;11.772;2022-10-16T03:46:48;2.08;;;1.08;;
46116;SDS011;32591;48.102;11.772;2022-10-16T03:49:14;2.25;;;1.08;;
46116;SDS011;32591;48.102;11.772;2022-10-16T03:51:43;2.85;;;1.10;;
46116;SDS011;32591;48.102;11.772;2022-10-16T03:54:10;1.33;;;1.00;;
46116;SDS011;32591;48.102;11.772;2022-10-16T03:56:37;2.15;;;0.93;;
46116;SDS011;32591;48.102;11.772;2022-10-16T03:59:04;3.72;;;1.10;;
46116;SDS011;32591;48.102;11.772;2022-10-16T04:01:31;5.20;;;1.40;;
46116;SDS011;32591;48.102;11.772;2022-10-16T04:03:58;1.00;;;0.90;;
46116;SDS011;32591;48.102;11.772;2022-10-16T04:06:25;2.33;;;1.00;;
46116;SDS011;32591;48.102;11.772;2022-10-16T04:08:54;2.55;;;1.30;;
46116;SDS011;32591;48.102;11.772;2022-10-16T04:11:21;3.72;;;1.00;;
46116;SDS011;32591;48.102;11.772;2022-10-16T04:13:48;1.33;;;0.93;;
46116;SDS011;32591;48.102;11.772;2022-10-16T04:16:15;2.25;;;1.20;;
46116;SDS011;32591;48.102;11.772;2022-10-16T04:18:42;5.80;;;1.20;;
46116;SDS011;32591;48.102;11.772;2022-10-16T04:21:09;2.38;;;1.35;;
46116;SDS011;32591;48.102;11.772;2022-10-16T04:23:36;2.55;;;1.02;;
46116;SDS011;32591;48.102;11.772;2022-10-16T04:26:04;1.85;;;1.20;;
46116;SDS011;32591;48.102;11.772;2022-10-16T04:28:31;2.38;;;1.15;;
46116;SDS011;32591;48.102;11.772;2022-10-16T04:30:58;1.00;;;0.80;;
46116;SDS011;32591;48.102;11.772;2022-10-16T04:33:26;1.58;;;0.88;;
46116;SDS011;32591;48.102;11.772;2022-10-16T04:35:56;2.33;;;1.02;;
46116;SDS011;32591;48.102;11.772;2022-10-16T04:38:23;2.78;;;1.00;;
46116;SDS011;32591;48.102;11.772;2022-10-16T04:40:51;1.92;;;1.25;;
46116;SDS011;32591;48.102;11.772;2022-10-16T04:43:20;1.30;;;0.90;;
46116;SDS011;32591;48.102;11.772;2022-10-16T04:45:47;1.95;;;0.80;;
46116;SDS011;32591;48.102;11.772;2022-10-16T04:48:16;1.48;;;1.00;;
46116;SDS011;32591;48.102;11.772;2022-10-16T04:50:43;1.13;;;0.88;;
46116;SDS011;32591;48.102;11.772;2022-10-16T04:53:10;1.67;;;1.10;;
46116;SDS011;32591;48.102;11.772;2022-10-16T04:55:37;1.88;;;1.40;;
46116;SDS011;32591;48.102;11.772;2022-10-16T04:58:04;1.88;;;1.08;;
46116;SDS011;32591;48.102;11.772;2022-10-16T05:00:33;1.52;;;1.00;;
46116;SDS011;32591;48.102;11.772;2022-10-16T05:03:01;1.85;;;1.10;;
46116;SDS011;32591;48.102;11.772;2022-10-16T05:05:31;2.08;;;1.10;;
46116;SDS011;32591;48.102;11.772;2022-10-16T05:07:58;5.85;;;1.23;;
46116;SDS011;32591;48.102;11.772;2022-10-16T05:10:25;3.13;;;1.08;;
46116;SDS011;32591;48.102;11.772;2022-10-16T05:12:52;1.45;;;1.35;;
46116;SDS011;32591;48.102;11.772;2022-10-16T05:15:19;2.17;;;1.23;;
46116;SDS011;32591;48.102;11.772;2022-10-16T05:17:47;4.47;;;1.15;;
46116;SDS011;32591;48.102;11.772;2022-10-16T05:20:18;3.33;;;1.15;;
46116;SDS011;32591;48.102;11.772;2022-10-16T05:22:45;2.30;;;1.20;;
46116;SDS011;32591;48.102;11.772;2022-10-16T05:25:12;2.63;;;1.15;;
46116;SDS011;32591;48.102;11.772;2022-10-16T05:27:39;1.77;;;0.80;;
46116;SDS011;32591;48.102;11.772;2022-10-16T05:30:07;3.22;;;1.10;;
46116;SDS011;32591;48.102;11.772;2022-10-16T05:32:35;2.25;;;1.23;;
46116;SDS011;32591;48.102;11.772;2022-10-16T05:35:03;2.50;;;0.90;;
46116;SDS011;32591;48.102;11.772;2022-10-16T05:37:31;2.75;;;1.42;;
46116;SDS011;32591;48.102;11.772;2022-10-16T05:39:59;1.98;;;1.30;;
46116;SDS011;32591;48.102;11.772;2022-10-16T05:42:27;4.75;;;2.53;;
46116;SDS011;32591;48.102;11.772;2022-10-16T05:44:54;3.20;;;1.90;;
46116;SDS011;32591;48.102;11.772;2022-10-16T05:47:21;3.28;;;1.65;;
46116;SDS011;32591;48.102;11.772;2022-10-16T05:49:48;3.42;;;1.70;;
46116;SDS011;32591;48.102;11.772;2022-10-16T05:52:17;2.83;;;1.75;;
46116;SDS011;32591;48.102;11.772;2022-10-16T05:54:44;3.83;;;2.05;;
46116;SDS011;32591;48.102;11.772;2022-10-16T05:57:11;3.58;;;1.67;;
46116;SDS011;32591;48.102;11.772;2022-10-16T05:59:38;5.82;;;2.00;;
46116;SDS011;32591;48.102;11.772;2022-10-16T06:02:05;3.65;;;1.50;;
46116;SDS011;32591;48.102;11.772;2022-10-16T06:04:32;3.80;;;1.60;;
46116;SDS011;32591;48.102;11.772;2022-10-16T06:06:59;2.63;;;1.70;;
46116;SDS011;32591;48.102;11.772;2022-10-16T06:09:27;4.43;;;1.92;;
46116;SDS011;32591;48.102;11.772;2022-10-16T06:11:54;2.95;;;1.58;;
46116;SDS011;32591;48.102;11.772;2022-10-16T06:14:21;3.10;;;1.58;;
46116;SDS011;32591;48.102;11.772;2022-10-16T06:16:48;2.17;;;1.52;;
46116;SDS011;32591;48.102;11.772;2022-10-16T06:19:16;2.45;;;1.45;;
46116;SDS011;32591;48.102;11.772;2022-10-16T06:21:43;2.60;;;1.58;;
46116;SDS011;32591;48.102;11.772;2022-10-16T06:24:10;3.83;;;1.80;;
46116;SDS011;32591;48.102;11.772;2022-10-16T06:26:39;3.05;;;1.88;;
46116;SDS011;32591;48.102;11.772;2022-10-16T06:29:06;2.65;;;1.50;;
46116;SDS011;32591;48.102;11.772;2022-10-16T06:31:34;3.13;;;1.52;;
46116;SDS011;32591;48.102;11.772;2022-10-16T06:34:01;2.05;;;1.50;;
46116;SDS011;32591;48.102;11.772;2022-10-16T06:36:29;3.00;;;1.75;;
46116;SDS011;32591;48.102;11.772;2022-10-16T06:38:56;3.90;;;2.08;;
46116;SDS011;32591;48.102;11.772;2022-10-16T06:41:23;4.65;;;2.58;;
46116;SDS011;32591;48.102;11.772;2022-10-16T06:43:52;4.88;;;1.88;;
46116;SDS011;32591;48.102;11.772;2022-10-16T06:46:20;4.45;;;1.67;;
46116;SDS011;32591;48.102;11.772;2022-10-16T06:48:50;2.30;;;1.40;;
46116;SDS011;32591;48.102;11.772;2022-10-16T06:51:17;3.03;;;1.45;;
46116;SDS011;32591;48.102;11.772;2022-10-16T06:53:46;2.63;;;1.08;;
46116;SDS011;32591;48.102;11.772;2022-10-16T06:56:16;4.00;;;1.65;;
46116;SDS011;32591;48.102;11.772;2022-10-16T06:58:45;1.88;;;1.20;;
46116;SDS011;32591;48.102;11.772;2022-10-16T07:01:15;1.20;;;0.95;;
46116;SDS011;32591;48.102;11.772;2022-10-16T07:03:44;2.55;;;1.27;;
46116;SDS011;32591;48.102;11.772;2022-10-16T07:06:13;2.42;;;1.40;;
46116;SDS011;32591;48.102;11.772;2022-10-16T07:08:43;2.42;;;1.67;;
46116;SDS011;32591;48.102;11.772;2022-10-16T07:11:12;3.35;;;1.80;;
46116;SDS011;32591;48.102;11.772;2022-10-16T07:13:42;3.85;;;1.80;;
46116;SDS011;32591;48.102;11.772;2022-10-16T07:16:11;3.10;;;1.67;;
46116;SDS011;32591;48.102;11.772;2022-10-16T07:18:42;1.88;;;1.25;;
46116;SDS011;32591;48.102;11.772;2022-10-16T07:21:11;2.70;;;1.30;;
46116;SDS011;32591;48.102;11.772;2022-10-16T07:23:40;3.33;;;1.83;;
46116;SDS011;32591;48.102;11.772;2022-10-16T07:26:08;2.30;;;1.20;;
46116;SDS011;32591;48.102;11.772;2022-10-16T07:28:36;2.72;;;1.60;;
46116;SDS011;32591;48.102;11.772;2022-10-16T07:31:05;2.35;;;1.60;;
46116;SDS011;32591;48.102;11.772;2022-10-16T07:33:37;2.53;;;1.55;;
46116;SDS011;32591;48.102;11.772;2022-10-16T07:36:07;5.60;;;1.50;;
46116;SDS011;32591;48.102;11.772;2022-10-16T07:38:34;2.42;;;1.55;;
46116;SDS011;32591;48.102;11.772;2022-10-16T07:41:02;2.35;;;1.50;;
46116;SDS011;32591;48.102;11.772;2022-10-16T07:43:31;2.00;;;1.50;;
46116;SDS011;32591;48.102;11.772;2022-10-16T07:45:58;1.88;;;1.40;;
46116;SDS011;32591;48.102;11.772;2022-10-16T07:48:26;4.07;;;1.75;;
46116;SDS011;32591;48.102;11.772;2022-10-16T07:50:58;1.85;;;1.35;;
46116;SDS011;32591;48.102;11.772;2022-10-16T07:53:25;1.63;;;1.30;;
46116;SDS011;32591;48.102;11.772;2022-10-16T07:55:56;2.42;;;1.52;;
46116;SDS011;32591;48.102;11.772;2022-10-16T07:58:25;2.42;;;1.75;;
46116;SDS011;32591;48.102;11.772;2022-10-16T08:00:52;3.33;;;1.85;;
46116;SDS011;32591;48.102;11.772;2022-10-16T08:03:20;4.32;;;1.23;;
46116;SDS011;32591;48.102;11.772;2022-10-16T08:05:47;3.33;;;1.10;;
46116;SDS011;32591;48.102;11.772;2022-10-16T08:08:16;3.70;;;1.50;;
46116;SDS011;32591;48.102;11.772;2022-10-16T08:10:45;2.40;;;1.85;;
46116;SDS011;32591;48.102;11.772;2022-10-16T08:13:12;1.75;;;1.27;;
46116;SDS011;32591;48.102;11.772;2022-10-16T08:15:40;2.25;;;1.50;;
46116;SDS011;32591;48.102;11.772;2022-10-16T08:18:07;1.98;;;1.35;;
46116;SDS011;32591;48.102;11.772;2022-10-16T08:20:36;2.58;;;1.50;;
46116;SDS011;32591;48.102;11.772;2022-10-16T08:23:03;2.80;;;1.50;;
46116;SDS011;32591;48.102;11.772;2022-10-16T08:25:33;2.15;;;1.50;;
46116;SDS011;32591;48.102;11.772;2022-10-16T08:28:02;3.13;;;1.50;;
46116;SDS011;32591;48.102;11.772;2022-10-16T08:30:30;3.65;;;1.70;;
46116;SDS011;32591;48.102;11.772;2022-10-16T08:32:58;2.00;;;1.60;;
46116;SDS011;32591;48.102;11.772;2022-10-16T08:35:25;1.52;;;1.30;;
46116;SDS011;32591;48.102;11.772;2022-10-16T08:37:53;2.42;;;1.58;;
46116;SDS011;32591;48.102;11.772;2022-10-16T08:40:20;2.13;;;1.30;;
46116;SDS011;32591;48.102;11.772;2022-10-16T08:43:03;2.40;;;1.50;;
46116;SDS011;32591;48.102;11.772;2022-10-16T08:46:07;2.00;;;1.42;;
46116;SDS011;32591;48.102;11.772;2022-10-16T08:48:48;1.35;;;1.20;;
46116;SDS011;32591;48.102;11.772;2022-10-16T08:51:19;1.67;;;1.23;;
46116;SDS011;32591;48.102;11.772;2022-10-16T08:53:51;2.47;;;1.48;;
46116;SDS011;32591;48.102;11.772;2022-10-16T08:56:22;1.77;;;1.27;;
46116;SDS011;32591;48.102;11.772;2022-10-16T08:58:51;3.13;;;1.23;;
46116;SDS011;32591;48.102;11.772;2022-10-16T09:01:21;1.88;;;1.25;;
46116;SDS011;32591;48.102;11.772;2022-10-16T09:04:00;2.97;;;1.70;;
46116;SDS011;32591;48.102;11.772;2022-10-16T09:06:52;2.33;;;1.50;;
46116;SDS011;32591;48.102;11.772;2022-10-16T09:09:29;2.53;;;1.67;;
46116;SDS011;32591;48.102;11.772;2022-10-16T09:12:11;1.75;;;1.50;;
46116;SDS011;32591;48.102;11.772;2022-10-16T09:14:58;4.97;;;1.70;;
46116;SDS011;32591;48.102;11.772;2022-10-16T09:17:38;2.72;;;1.60;;
46116;SDS011;32591;48.102;11.772;2022-10-16T09:20:20;3.35;;;1.30;;
46116;SDS011;32591;48.102;11.772;2022-10-16T09:23:00;4.50;;;1.60;;
46116;SDS011;32591;48.102;11.772;2022-10-16T09:25:43;3.03;;;1.27;;
46116;SDS011;32591;48.102;11.772;2022-10-16T09:28:13;2.72;;;1.33;;
46116;SDS011;32591;48.102;11.772;2022-10-16T09:30:43;1.85;;;1.40;;
46116;SDS011;32591;48.102;11.772;2022-10-16T09:33:13;3.50;;;1.45;;
46116;SDS011;32591;48.102;11.772;2022-10-16T09:35:43;2.38;;;1.25;;
46116;SDS011;32591;48.102;11.772;2022-10-16T09:38:20;2.47;;;1.50;;
46116;SDS011;32591;48.102;11.772;2022-10-16T09:40:49;1.73;;;1.63;;
46116;SDS011;32591;48.102;11.772;2022-10-16T09:43:22;3.53;;;1.48;;
46116;SDS011;32591;48.102;11.772;2022-10-16T09:45:54;1.83;;;1.35;;
46116;SDS011;32591;48.102;11.772;2022-10-16T09:48:23;4.15;;;1.35;;
46116;SDS011;32591;48.102;11.772;2022-10-16T09:50:57;1.88;;;1.13;;
46116;SDS011;32591;48.102;11.772;2022-10-16T09:53:26;1.95;;;1.35;;
46116;SDS011;32591;48.102;11.772;2022-10-16T09:56:10;1.60;;;1.35;;
46116;SDS011;32591;48.102;11.772;2022-10-16T09:58:42;1.60;;;1.25;;
46116;SDS011;32591;48.102;11.772;2022-10-16T10:01:13;3.28;;;1.50;;
46116;SDS011;32591;48.102;11.772;2022-10-16T10:03:41;2.45;;;1.60;;
46116;SDS011;32591;48.102;11.772;2022-10-16T10:06:17;1.48;;;1.33;;
46116;SDS011;32591;48.102;11.772;2022-10-16T10:08:53;2.08;;;1.33;;
46116;SDS011;32591;48.102;11.772;2022-10-16T10:11:39;3.55;;;1.25;;
46116;SDS011;32591;48.102;11.772;2022-10-16T10:14:14;1.95;;;1.23;;
46116;SDS011;32591;48.102;11.772;2022-10-16T10:16:50;1.42;;;1.00;;
46116;SDS011;32591;48.102;11.772;2022-10-16T10:19:19;2.00;;;1.23;;
46116;SDS011;32591;48.102;11.772;2022-10-16T10:21:48;1.58;;;1.40;;
46116;SDS011;32591;48.102;11.772;2022-10-16T10:24:17;2.25;;;1.30;;
46116;SDS011;32591;48.102;11.772;2022-10-16T10:26:54;2.40;;;1.27;;
46116;SDS011;32591;48.102;11.772;2022-10-16T10:29:40;1.52;;;1.13;;
46116;SDS011;32591;48.102;11.772;2022-10-16T10:32:19;1.40;;;1.13;;
46116;SDS011;32591;48.102;11.772;2022-10-16T10:34:58;1.73;;;1.30;;
46116;SDS011;32591;48.102;11.772;2022-10-16T10:37:49;3.15;;;1.58;;
46116;SDS011;32591;48.102;11.772;2022-10-16T10:40:30;1.73;;;1.08;;
46116;SDS011;32591;48.102;11.772;2022-10-16T10:43:12;1.20;;;1.00;;
46116;SDS011;32591;48.102;11.772;2022-10-16T10:45:54;1.98;;;1.13;;
46116;SDS011;32591;48.102;11.772;2022-10-16T10:48:40;2.13;;;1.07;;
46116;SDS011;32591;48.102;11.772;2022-10-16T10:51:21;1.90;;;0.90;;
46116;SDS011;32591;48.102;11.772;2022-10-16T10:53:59;1.33;;;1.00;;
46116;SDS011;32591;48.102;11.772;2022-10-16T10:56:40;2.42;;;1.25;;
46116;SDS011;32591;48.102;11.772;2022-10-16T11:02:19;2.05;;;0.90;;
46116;SDS011;32591;48.102;11.772;2022-10-16T11:05:12;1.92;;;1.05;;
46116;SDS011;32591;48.102;11.772;2022-10-16T11:08:07;1.23;;;0.70;;
46116;SDS011;32591;48.102;11.772;2022-10-16T11:10:49;1.48;;;0.60;;
46116;SDS011;32591;48.102;11.772;2022-10-16T11:13:30;2.83;;;1.20;;
46116;SDS011;32591;48.102;11.772;2022-10-16T11:16:03;2.42;;;0.73;;
46116;SDS011;32591;48.102;11.772;2022-10-16T11:18:42;1.85;;;0.65;;
46116;SDS011;32591;48.102;11.772;2022-10-16T11:21:17;1.35;;;0.82;;
46116;SDS011;32591;48.102;11.772;2022-10-16T11:23:49;1.08;;;0.80;;
46116;SDS011;32591;48.102;11.772;2022-10-16T11:26:29;1.30;;;0.77;;
46116;SDS011;32591;48.102;11.772;2022-10-16T11:29:01;1.73;;;1.38;;
46116;SDS011;32591;48.102;11.772;2022-10-16T11:31:32;1.20;;;0.80;;
46116;SDS011;32591;48.102;11.772;2022-10-16T11:34:06;1.13;;;0.75;;
46116;SDS011;32591;48.102;11.772;2022-10-16T11:36:44;1.20;;;0.70;;
46116;SDS011;32591;48.102;11.772;2022-10-16T11:39:19;1.67;;;0.85;;
46116;SDS011;32591;48.102;11.772;2022-10-16T11:41:48;0.88;;;0.80;;
46116;SDS011;32591;48.102;11.772;2022-10-16T11:44:34;0.90;;;0.70;;
46116;SDS011;32591;48.102;11.772;2022-10-16T11:47:13;0.85;;;0.60;;
46116;SDS011;32591;48.102;11.772;2022-10-16T11:49:51;3.40;;;0.63;;
46116;SDS011;32591;48.102;11.772;2022-10-16T11:52:28;1.23;;;0.63;;
46116;SDS011;32591;48.102;11.772;2022-10-16T11:55:04;0.63;;;0.50;;
46116;SDS011;32591;48.102;11.772;2022-10-16T11:57:41;1.40;;;0.75;;
46116;SDS011;32591;48.102;11.772;2022-10-16T12:00:14;0.63;;;0.50;;
46116;SDS011;32591;48.102;11.772;2022-10-16T12:02:52;2.28;;;0.80;;
46116;SDS011;32591;48.102;11.772;2022-10-16T12:05:28;1.30;;;0.60;;
46116;SDS011;32591;48.102;11.772;2022-10-16T12:08:07;1.70;;;0.60;;
46116;SDS011;32591;48.102;11.772;2022-10-16T12:10:37;0.60;;;0.60;;
46116;SDS011;32591;48.102;11.772;2022-10-16T12:16:05;2.17;;;0.70;;
46116;SDS011;32591;48.102;11.772;2022-10-16T12:18:47;0.63;;;0.50;;
46116;SDS011;32591;48.102;11.772;2022-10-16T12:21:16;2.75;;;0.68;;
46116;SDS011;32591;48.102;11.772;2022-10-16T12:23:49;1.08;;;0.68;;
46116;SDS011;32591;48.102;11.772;2022-10-16T12:26:25;1.70;;;0.60;;
46116;SDS011;32591;48.102;11.772;2022-10-16T12:28:55;0.95;;;0.70;;
46116;SDS011;32591;48.102;11.772;2022-10-16T12:31:39;1.15;;;0.77;;
46116;SDS011;32591;48.102;11.772;2022-10-16T12:34:14;1.08;;;0.98;;
46116;SDS011;32591;48.102;11.772;2022-10-16T12:36:49;0.93;;;0.68;;
46116;SDS011;32591;48.102;11.772;2022-10-16T12:39:21;2.42;;;0.90;;
46116;SDS011;32591;48.102;11.772;2022-10-16T12:42:00;0.50;;;0.50;;
46116;SDS011;32591;48.102;11.772;2022-10-16T12:44:31;0.63;;;0.60;;
46116;SDS011;32591;48.102;11.772;2022-10-16T12:47:00;1.20;;;0.70;;
46116;SDS011;32591;48.102;11.772;2022-10-16T12:49:32;1.42;;;0.80;;
46116;SDS011;32591;48.102;11.772;2022-10-16T12:52:03;1.47;;;0.80;;
46116;SDS011;32591;48.102;11.772;2022-10-16T12:54:34;1.08;;;0.65;;
46116;SDS011;32591;48.102;11.772;2022-10-16T12:57:07;0.90;;;0.80;;
46116;SDS011;32591;48.102;11.772;2022-10-16T12:59:53;1.40;;;0.95;;
46116;SDS011;32591;48.102;11.772;2022-10-16T13:02:39;1.33;;;0.90;;
46116;SDS011;32591;48.102;11.772;2022-10-16T13:05:29;1.10;;;0.80;;
46116;SDS011;32591;48.102;11.772;2022-10-16T13:08:13;1.00;;;0.90;;
46116;SDS011;32591;48.102;11.772;2022-10-16T13:10:58;1.42;;;0.73;;
46116;SDS011;32591;48.102;11.772;2022-10-16T13:16:46;0.98;;;0.80;;
46116;SDS011;32591;48.102;11.772;2022-10-16T13:19:22;3.10;;;0.95;;
46116;SDS011;32591;48.102;11.772;2022-10-16T13:21:58;0.97;;;0.80;;
46116;SDS011;32591;48.102;11.772;2022-10-16T13:24:38;1.42;;;1.00;;
46116;SDS011;32591;48.102;11.772;2022-10-16T13:27:35;1.98;;;0.95;;
46116;SDS011;32591;48.102;11.772;2022-10-16T13:30:14;1.50;;;0.80;;
46116;SDS011;32591;48.102;11.772;2022-10-16T13:32:45;0.65;;;0.52;;
46116;SDS011;32591;48.102;11.772;2022-10-16T13:35:18;2.40;;;1.00;;
46116;SDS011;32591;48.102;11.772;2022-10-16T13:37:48;1.15;;;1.00;;
46116;SDS011;32591;48.102;11.772;2022-10-16T13:40:19;2.00;;;0.70;;
46116;SDS011;32591;48.102;11.772;2022-10-16T13:42:50;1.58;;;0.90;;
46116;SDS011;32591;48.102;11.772;2022-10-16T13:45:19;1.10;;;1.00;;
46116;SDS011;32591;48.102;11.772;2022-10-16T13:47:48;1.25;;;0.90;;
46116;SDS011;32591;48.102;11.772;2022-10-16T13:50:16;2.33;;;0.80;;
46116;SDS011;32591;48.102;11.772;2022-10-16T13:52:44;4.95;;;0.90;;
46116;SDS011;32591;48.102;11.772;2022-10-16T13:55:12;2.40;;;1.00;;
46116;SDS011;32591;48.102;11.772;2022-10-16T13:57:40;1.83;;;0.80;;
46116;SDS011;32591;48.102;11.772;2022-10-16T14:00:19;1.20;;;1.02;;
46116;SDS011;32591;48.102;11.772;2022-10-16T14:02:50;1.25;;;0.80;;
46116;SDS011;32591;48.102;11.772;2022-10-16T14:05:22;1.90;;;1.08;;
46116;SDS011;32591;48.102;11.772;2022-10-16T14:07:49;0.95;;;0.80;;
46116;SDS011;32591;48.102;11.772;2022-10-16T14:10:20;0.65;;;0.60;;
46116;SDS011;32591;48.102;11.772;2022-10-16T14:12:56;1.13;;;0.77;;
46116;SDS011;32591;48.102;11.772;2022-10-16T14:15:27;2.40;;;0.80;;
46116;SDS011;32591;48.102;11.772;2022-10-16T14:17:56;1.58;;;0.80;;
46116;SDS011;32591;48.102;11.772;2022-10-16T14:20:26;2.15;;;0.90;;
46116;SDS011;32591;48.102;11.772;2022-10-16T14:22:59;3.25;;;0.90;;
46116;SDS011;32591;48.102;11.772;2022-10-16T14:25:29;1.30;;;0.80;;
46116;SDS011;32591;48.102;11.772;2022-10-16T14:27:59;1.67;;;1.02;;
46116;SDS011;32591;48.102;11.772;2022-10-16T14:30:31;1.35;;;1.00;;
46116;SDS011;32591;48.102;11.772;2022-10-16T14:33:02;1.88;;;0.85;;
46116;SDS011;32591;48.102;11.772;2022-10-16T14:35:32;1.88;;;1.10;;
46116;SDS011;32591;48.102;11.772;2022-10-16T14:38:01;1.83;;;0.95;;
46116;SDS011;32591;48.102;11.772;2022-10-16T14:40:31;1.63;;;1.08;;
46116;SDS011;32591;48.102;11.772;2022-10-16T14:43:00;0.85;;;0.75;;
46116;SDS011;32591;48.102;11.772;2022-10-16T14:45:28;1.10;;;0.93;;
46116;SDS011;32591;48.102;11.772;2022-10-16T14:48:01;1.20;;;0.90;;
46116;SDS011;32591;48.102;11.772;2022-10-16T14:50:32;1.85;;;0.90;;
46116;SDS011;32591;48.102;11.772;2022-10-16T14:52:59;1.15;;;0.80;;
46116;SDS011;32591;48.102;11.772;2022-10-16T14:55:26;1.55;;;0.90;;
46116;SDS011;32591;48.102;11.772;2022-10-16T14:57:53;1.55;;;0.90;;
46116;SDS011;32591;48.102;11.772;2022-10-16T15:00:20;2.22;;;1.33;;
46116;SDS011;32591;48.102;11.772;2022-10-16T15:02:51;2.22;;;0.98;;
46116;SDS011;32591;48.102;11.772;2022-10-16T15:05:19;1.42;;;1.15;;
46116;SDS011;32591;48.102;11.772;2022-10-16T15:07:48;0.88;;;0.63;;
46116;SDS011;32591;48.102;11.772;2022-10-16T15:10:16;3.85;;;1.10;;